Time;durP1;ratioP1;P1;durP2;ratioP2;P2;SDS_P1;SDS_P2;PMS_P1;PMS_P2;Temp;Humidity;BMP_temperature;BMP_pressure;BME280_temperature;BME280_humidity;BME280_pressure;Samples;Min_cycle;Max_cycle;Signal;HPM_P1;HPM_P2
2023/12/23 00:01:45;;;;;;;11.65;3.63;;;2.20;99.90;;;;;;5105856;28;20059;-51
2023/12/23 00:04:10;;;;;;;13.75;3.55;;;2.20;99.90;;;;;;5105859;28;20074;-52
2023/12/23 00:06:36;;;;;;;13.52;3.28;;;2.20;99.90;;;;;;5105727;28;20047;-47
2023/12/23 00:09:01;;;;;;;9.02;2.67;;;2.20;99.90;;;;;;5105749;28;20059;-49
2023/12/23 00:11:28;;;;;;;6.47;2.10;;;2.20;99.90;;;;;;5105772;28;20028;-48
2023/12/23 00:13:53;;;;;;;8.63;3.23;;;2.20;99.90;;;;;;5086505;28;20039;-49
2023/12/23 00:16:19;;;;;;;9.23;2.80;;;2.20;99.50;;;;;;5106593;28;20047;-52
2023/12/23 00:18:45;;;;;;;7.43;2.33;;;2.20;95.10;;;;;;5107165;28;20579;-49
2023/12/23 00:21:10;;;;;;;10.38;2.78;;;2.20;95.80;;;;;;5105735;28;20165;-48
2023/12/23 00:23:36;;;;;;;10.70;2.88;;;2.20;97.20;;;;;;5105783;28;20023;-50
2023/12/23 00:26:02;;;;;;;10.35;3.28;;;2.20;72.60;;;;;;5106066;28;20023;-50
2023/12/23 00:28:27;;;;;;;6.93;2.33;;;2.20;69.50;;;;;;5106122;28;20023;-50
2023/12/23 00:30:53;;;;;;;9.65;2.08;;;2.20;56.30;;;;;;5106236;28;20418;-51
2023/12/23 00:33:18;;;;;;;12.23;3.00;;;2.20;40.00;;;;;;5087490;28;20467;-50
2023/12/23 00:35:44;;;;;;;7.63;2.05;;;2.30;37.30;;;;;;5106315;28;20015;-52
2023/12/23 00:38:10;;;;;;;7.70;2.15;;;2.20;14.40;;;;;;5105592;28;20031;-47
2023/12/23 00:40:36;;;;;;;6.35;2.03;;;2.30;11.80;;;;;;5105557;28;20039;-55
2023/12/23 00:43:02;;;;;;;6.55;1.98;;;2.30;1.00;;;;;;5105107;28;20028;-51
2023/12/23 00:45:28;;;;;;;9.02;1.75;;;2.30;1.00;;;;;;5104941;28;20387;-47
2023/12/23 00:47:53;;;;;;;5.70;1.40;;;2.30;1.00;;;;;;5104510;28;20024;-48
2023/12/23 00:50:19;;;;;;;6.95;2.30;;;2.30;1.00;;;;;;5104667;28;20070;-49
2023/12/23 00:52:44;;;;;;;4.82;1.42;;;2.30;1.00;;;;;;5104367;28;20038;-52
2023/12/23 00:55:10;;;;;;;3.03;0.98;;;2.30;1.00;;;;;;5105672;28;20110;-50
2023/12/23 00:57:35;;;;;;;8.98;1.58;;;2.30;1.00;;;;;;5103184;28;21070;-49
2023/12/23 14:16:11;;;;;;;12.80;5.47;;;0.40;99.90;;;;;;5100055;27;20121;-52
2023/12/23 14:18:37;;;;;;;12.77;5.93;;;0.40;99.90;;;;;;5090799;28;20034;-51
2023/12/23 14:21:03;;;;;;;18.10;7.38;;;0.40;99.90;;;;;;5088982;28;20028;-48
2023/12/23 14:23:28;;;;;;;18.25;9.15;;;0.40;99.90;;;;;;5082078;28;20025;-49
2023/12/23 14:25:54;;;;;;;20.98;9.70;;;0.40;99.90;;;;;;5087473;28;20120;-49
2023/12/23 14:28:20;;;;;;;21.20;9.63;;;0.40;99.90;;;;;;5087888;28;20028;-50
2023/12/23 14:30:45;;;;;;;20.13;10.82;;;0.40;99.90;;;;;;5091028;28;20560;-46
2023/12/23 14:33:11;;;;;;;24.85;10.55;;;0.40;99.90;;;;;;5083767;28;20099;-51
2023/12/23 14:35:37;;;;;;;22.73;13.13;;;0.40;99.90;;;;;;5085036;28;20590;-50
2023/12/23 14:38:02;;;;;;;23.35;10.90;;;0.50;99.90;;;;;;5080526;28;20363;-52
2023/12/23 14:40:29;;;;;;;21.88;11.45;;;0.40;99.90;;;;;;5087907;28;20024;-50
2023/12/23 14:42:54;;;;;;;25.58;12.88;;;0.40;99.90;;;;;;5080894;28;20032;-48
2023/12/23 14:45:20;;;;;;;30.48;15.80;;;0.40;99.90;;;;;;5080450;28;20020;-48
2023/12/23 14:47:46;;;;;;;30.92;14.52;;;0.50;99.90;;;;;;5080593;28;20035;-49
2023/12/23 14:50:15;;;;;;;24.67;13.10;;;0.50;99.90;;;;;;5080134;28;20513;-48
2023/12/23 14:52:40;;;;;;;23.92;12.30;;;0.50;99.90;;;;;;5080429;28;20032;-50
2023/12/23 14:55:07;;;;;;;20.20;10.75;;;0.60;99.90;;;;;;5078845;28;20111;-49
2023/12/23 14:57:33;;;;;;;22.20;12.13;;;0.50;99.90;;;;;;5078197;28;20028;-54
2023/12/23 14:59:58;;;;;;;28.38;13.27;;;0.50;99.90;;;;;;5079414;28;20036;-51
2023/12/23 15:02:24;;;;;;;25.00;13.57;;;0.60;99.90;;;;;;5088598;28;20050;-51
2023/12/23 15:04:50;;;;;;;32.13;16.10;;;0.60;99.90;;;;;;5084102;28;20463;-47
2023/12/23 15:07:15;;;;;;;35.80;18.92;;;0.60;99.90;;;;;;5089679;28;20511;-52
2023/12/23 15:09:41;;;;;;;47.55;22.92;;;0.70;99.90;;;;;;5089774;28;20355;-49
2023/12/23 15:12:16;;;;;;;41.85;21.33;;;0.60;99.90;;;;;;5087492;28;20050;-48
2023/12/23 15:14:42;;;;;;;54.10;25.73;;;0.60;99.90;;;;;;5087559;28;20044;-50
2023/12/23 15:17:08;;;;;;;50.08;27.30;;;0.70;99.90;;;;;;5089258;28;20034;-47
2023/12/23 15:19:34;;;;;;;54.55;26.50;;;0.70;99.90;;;;;;5085886;28;20540;-50
2023/12/23 15:21:59;;;;;;;46.90;25.05;;;0.70;99.90;;;;;;5075833;28;20033;-51
2023/12/23 15:24:25;;;;;;;46.95;23.90;;;0.70;99.90;;;;;;5078683;28;20103;-46
2023/12/23 15:26:51;;;;;;;46.70;24.90;;;0.70;99.90;;;;;;5069403;28;20024;-49
2023/12/23 15:29:17;;;;;;;48.28;26.35;;;0.70;99.90;;;;;;5065006;28;20029;-51
2023/12/23 15:31:43;;;;;;;49.33;25.43;;;0.70;99.90;;;;;;5065156;28;20025;-50
2023/12/23 15:34:08;;;;;;;42.20;21.63;;;0.70;99.90;;;;;;5067582;28;20300;-49
2023/12/23 15:36:34;;;;;;;44.80;21.63;;;0.70;99.90;;;;;;5074372;28;20391;-48
2023/12/23 15:39:00;;;;;;;44.78;22.15;;;0.70;99.90;;;;;;5073459;28;20138;-46
2023/12/23 15:41:25;;;;;;;46.30;22.92;;;0.70;99.90;;;;;;5074388;28;20082;-50
2023/12/23 15:43:51;;;;;;;42.67;21.80;;;0.80;99.90;;;;;;5073578;28;20020;-51
2023/12/23 15:46:18;;;;;;;38.78;19.85;;;0.70;99.90;;;;;;5073064;28;20020;-48
2023/12/23 15:48:43;;;;;;;44.10;20.75;;;0.80;99.90;;;;;;5073335;28;20425;-47
2023/12/23 15:51:09;;;;;;;36.42;19.38;;;0.70;99.90;;;;;;5071847;28;20024;-52
2023/12/23 15:53:39;;;;;;;29.60;16.85;;;0.80;99.90;;;;;;5076681;28;20031;-50
2023/12/23 15:56:08;;;;;;;31.83;17.27;;;0.80;99.90;;;;;;5077215;28;20032;-49
2023/12/23 15:58:34;;;;;;;30.13;16.17;;;0.80;99.90;;;;;;5076300;28;20016;-48
2023/12/23 16:01:00;;;;;;;28.95;15.52;;;0.90;99.90;;;;;;5077168;28;20032;-50
2023/12/23 16:03:25;;;;;;;32.10;19.50;;;0.80;99.90;;;;;;5077808;28;20092;-52
2023/12/23 16:05:51;;;;;;;42.58;24.73;;;0.90;99.90;;;;;;5077281;28;20036;-50
2023/12/23 16:08:17;;;;;;;40.55;23.75;;;0.90;99.90;;;;;;5075701;28;20103;-50
2023/12/23 16:10:42;;;;;;;46.40;24.52;;;1.00;99.90;;;;;;5073539;28;20024;-48
2023/12/23 16:13:08;;;;;;;65.50;30.23;;;1.00;99.90;;;;;;5074140;28;20502;-51
2023/12/23 16:15:34;;;;;;;69.03;34.60;;;1.00;99.90;;;;;;5076875;28;20059;-46
2023/12/23 16:18:00;;;;;;;68.38;33.70;;;1.00;99.90;;;;;;5075467;28;20032;-49
2023/12/23 16:20:25;;;;;;;60.45;31.95;;;1.00;99.90;;;;;;5074631;28;20108;-50
2023/12/23 16:22:51;;;;;;;57.00;30.27;;;1.00;99.90;;;;;;5075014;28;20031;-47
2023/12/23 16:25:17;;;;;;;53.50;27.25;;;1.00;99.90;;;;;;5067851;28;20031;-46
2023/12/23 16:27:43;;;;;;;45.70;25.63;;;0.90;99.90;;;;;;5066247;28;20041;-48
2023/12/23 16:30:10;;;;;;;50.80;23.75;;;0.90;99.90;;;;;;5070973;28;20032;-50
2023/12/23 16:32:35;;;;;;;47.97;25.33;;;0.90;99.90;;;;;;5072460;28;20833;-51
2023/12/23 16:35:01;;;;;;;39.63;19.13;;;0.90;99.90;;;;;;5069418;28;20131;-50
2023/12/23 16:37:27;;;;;;;33.90;15.75;;;0.90;99.90;;;;;;5073282;28;20568;-49
2023/12/23 16:39:53;;;;;;;24.08;11.73;;;0.90;99.90;;;;;;5064956;28;20043;-51
2023/12/23 16:42:18;;;;;;;21.40;11.10;;;0.90;99.90;;;;;;5065117;28;20668;-49
2023/12/23 16:44:44;;;;;;;21.35;10.27;;;0.80;99.90;;;;;;5064919;28;20036;-46
2023/12/23 16:47:10;;;;;;;31.83;15.65;;;0.80;99.90;;;;;;5064102;28;20721;-48
2023/12/23 16:49:35;;;;;;;35.72;14.85;;;0.80;99.90;;;;;;5063709;28;20438;-49
2023/12/23 16:52:01;;;;;;;33.10;15.20;;;0.70;99.90;;;;;;5062781;28;20067;-49
2023/12/23 16:54:28;;;;;;;47.88;20.45;;;0.80;99.90;;;;;;5064299;28;20041;-50
2023/12/23 16:56:54;;;;;;;45.35;20.30;;;0.80;99.90;;;;;;5064239;28;20095;-49
2023/12/23 16:59:20;;;;;;;50.45;21.95;;;0.80;99.90;;;;;;5061885;28;20488;-50
2023/12/23 17:01:45;;;;;;;40.58;18.88;;;0.80;99.90;;;;;;5062617;28;20035;-51
2023/12/23 17:04:11;;;;;;;27.08;13.60;;;0.80;99.90;;;;;;5062426;28;20107;-52
2023/12/23 17:06:37;;;;;;;21.48;10.23;;;0.70;99.90;;;;;;5062652;28;20459;-49
2023/12/23 17:09:06;;;;;;;12.90;7.15;;;0.70;99.90;;;;;;5061849;28;20032;-50
2023/12/23 17:11:32;;;;;;;14.10;5.93;;;0.70;99.90;;;;;;5061891;28;20020;-47
2023/12/23 17:13:58;;;;;;;17.27;7.78;;;0.70;99.90;;;;;;5061813;28;20114;-51
2023/12/23 17:16:23;;;;;;;15.13;6.35;;;0.70;99.90;;;;;;5063114;28;20052;-48
2023/12/23 17:18:49;;;;;;;12.15;6.38;;;0.70;99.90;;;;;;5063903;28;20020;-50
2023/12/23 17:21:14;;;;;;;14.50;5.22;;;0.70;99.90;;;;;;5063584;28;20020;-46
2023/12/23 17:23:40;;;;;;;13.50;6.85;;;0.70;99.90;;;;;;5063664;28;20583;-54
2023/12/23 17:26:06;;;;;;;16.60;6.78;;;0.70;99.90;;;;;;5063550;28;20024;-50
2023/12/23 17:28:32;;;;;;;18.20;7.20;;;0.80;99.90;;;;;;5062619;28;20626;-52
2023/12/23 17:30:57;;;;;;;22.30;9.07;;;0.80;99.90;;;;;;5064160;28;20036;-49
2023/12/23 17:33:23;;;;;;;26.88;11.43;;;0.80;99.90;;;;;;5064098;28;20028;-51
2023/12/23 17:35:48;;;;;;;29.20;11.65;;;0.80;99.90;;;;;;5063551;28;20036;-49
2023/12/23 17:38:14;;;;;;;26.35;11.40;;;0.80;99.90;;;;;;5062895;28;20036;-48
2023/12/23 17:40:41;;;;;;;19.10;9.60;;;0.80;99.90;;;;;;5063750;28;20020;-47
2023/12/23 17:43:08;;;;;;;24.27;10.20;;;0.80;99.90;;;;;;5063737;28;20086;-50
2023/12/23 17:45:34;;;;;;;17.77;7.53;;;0.80;99.90;;;;;;5063364;28;20036;-47
2023/12/23 17:47:59;;;;;;;14.38;6.82;;;0.80;99.90;;;;;;5063122;28;20039;-46
2023/12/23 17:50:25;;;;;;;14.02;6.68;;;0.90;99.90;;;;;;5063304;28;20056;-50
2023/12/23 17:52:51;;;;;;;13.57;6.50;;;0.80;99.90;;;;;;5063787;28;20070;-48
2023/12/23 17:55:19;;;;;;;14.73;6.50;;;0.90;99.90;;;;;;5063445;28;20040;-47
2023/12/23 17:57:45;;;;;;;18.98;9.88;;;0.80;99.90;;;;;;5061245;28;20842;-49
2023/12/23 18:00:11;;;;;;;23.52;11.68;;;0.90;99.90;;;;;;5052823;28;20089;-50
2023/12/23 18:02:37;;;;;;;22.77;11.43;;;0.90;99.90;;;;;;5050383;28;20025;-49
2023/12/23 18:05:03;;;;;;;26.58;12.98;;;0.90;99.90;;;;;;5051010;28;20118;-49
2023/12/23 18:07:29;;;;;;;21.15;11.02;;;0.90;99.90;;;;;;5042928;28;20029;-47
2023/12/23 18:09:55;;;;;;;23.42;12.25;;;0.90;99.90;;;;;;5041316;28;20048;-50
2023/12/23 18:12:20;;;;;;;22.77;11.30;;;0.90;99.90;;;;;;5055417;28;20383;-47
2023/12/23 18:14:46;;;;;;;23.92;11.77;;;0.80;99.90;;;;;;5062334;28;20514;-50
2023/12/23 18:17:11;;;;;;;20.98;11.57;;;0.80;99.90;;;;;;5062760;28;20029;-48
2023/12/23 18:19:37;;;;;;;28.80;13.80;;;0.80;99.90;;;;;;5062821;28;20039;-48
2023/12/23 18:22:03;;;;;;;27.27;13.95;;;0.80;99.90;;;;;;5062774;28;20455;-52
2023/12/23 18:24:28;;;;;;;42.45;21.42;;;0.90;99.90;;;;;;5062878;28;20075;-48
2023/12/23 18:26:54;;;;;;;27.58;14.45;;;0.90;99.90;;;;;;5063103;28;20741;-50
2023/12/23 18:29:20;;;;;;;23.63;11.77;;;0.80;99.90;;;;;;5062995;28;20513;-48
2023/12/23 18:31:45;;;;;;;26.60;13.68;;;0.90;99.90;;;;;;5061784;28;20035;-52
2023/12/23 18:34:11;;;;;;;25.40;13.95;;;0.90;99.90;;;;;;5060642;28;20086;-49
2023/12/23 18:36:36;;;;;;;28.55;14.73;;;0.80;99.90;;;;;;5062107;28;20107;-49
2023/12/23 18:39:03;;;;;;;33.25;16.95;;;0.90;99.90;;;;;;5061917;28;20400;-47
2023/12/23 18:41:28;;;;;;;29.42;15.23;;;0.90;99.90;;;;;;5062168;28;20054;-49
2023/12/23 18:43:54;;;;;;;25.13;13.90;;;0.90;99.90;;;;;;5063282;28;20025;-47
2023/12/23 18:46:20;;;;;;;30.05;15.68;;;0.90;99.90;;;;;;5054501;28;20048;-50
2023/12/23 18:48:46;;;;;;;26.42;13.73;;;0.80;99.90;;;;;;5044216;28;20025;-49
2023/12/23 18:51:12;;;;;;;28.38;15.48;;;0.80;99.90;;;;;;5048324;28;20025;-50
2023/12/23 18:53:37;;;;;;;29.52;15.00;;;0.80;99.90;;;;;;5047758;28;20029;-55
2023/12/23 18:56:03;;;;;;;28.42;15.27;;;0.80;99.90;;;;;;5047960;28;20532;-49
2023/12/23 18:58:29;;;;;;;21.95;12.98;;;0.90;99.90;;;;;;5046898;28;20491;-48
2023/12/23 19:00:57;;;;;;;21.35;10.82;;;0.80;99.90;;;;;;5049276;28;20021;-47
2023/12/23 19:03:22;;;;;;;21.48;10.80;;;0.80;99.90;;;;;;5062157;28;20043;-53
2023/12/23 19:05:48;;;;;;;22.38;11.48;;;0.90;99.90;;;;;;5072200;28;20088;-51
2023/12/23 19:08:14;;;;;;;17.77;10.43;;;0.90;99.90;;;;;;5071455;28;20029;-48
2023/12/23 19:10:42;;;;;;;23.52;11.73;;;0.90;99.90;;;;;;5070685;28;20039;-50
2023/12/23 19:13:08;;;;;;;20.60;10.07;;;0.90;99.90;;;;;;5070475;28;20028;-47
2023/12/23 19:15:34;;;;;;;15.77;8.50;;;1.00;99.90;;;;;;5069913;28;20113;-49
2023/12/23 19:17:59;;;;;;;15.68;8.45;;;0.90;99.90;;;;;;5070253;28;20475;-48
2023/12/23 19:20:25;;;;;;;18.23;9.25;;;0.90;99.90;;;;;;5067647;28;20029;-49
2023/12/23 19:22:51;;;;;;;17.38;8.00;;;1.00;99.90;;;;;;5065604;28;20422;-46
2023/12/23 19:25:19;;;;;;;20.63;10.00;;;1.00;99.90;;;;;;5066333;28;20028;-47
2023/12/23 19:27:45;;;;;;;17.10;8.82;;;0.90;99.90;;;;;;5067053;28;20033;-46
2023/12/23 19:30:11;;;;;;;15.13;8.30;;;1.00;99.90;;;;;;5066537;28;20430;-50
2023/12/23 19:32:40;;;;;;;16.77;8.60;;;1.00;99.90;;;;;;5066376;28;20028;-46
2023/12/23 19:35:07;;;;;;;15.73;8.98;;;1.00;99.90;;;;;;5066402;28;20048;-47
2023/12/23 19:37:33;;;;;;;19.13;8.23;;;1.00;99.90;;;;;;5066917;28;20053;-49
2023/12/23 19:39:59;;;;;;;13.90;7.47;;;0.90;99.90;;;;;;5067045;28;20024;-52
2023/12/23 19:42:24;;;;;;;16.77;8.13;;;0.90;99.90;;;;;;5066608;28;20040;-47
2023/12/23 19:44:50;;;;;;;15.88;8.68;;;0.90;99.90;;;;;;5066450;28;20031;-46
2023/12/23 19:47:15;;;;;;;17.13;8.95;;;1.00;99.90;;;;;;5066670;28;20032;-47
2023/12/23 19:49:43;;;;;;;14.65;8.02;;;0.90;99.90;;;;;;5067075;28;20028;-49
2023/12/23 19:52:08;;;;;;;;;;;0.90;99.90;;;;;;5067119;28;20043;-49
2023/12/23 19:54:34;;;;;;;19.63;9.23;;;0.90;99.90;;;;;;5066628;28;19916;-49
2023/12/23 19:56:59;;;;;;;22.25;10.50;;;0.90;99.90;;;;;;5065065;28;20028;-49
2023/12/23 19:59:25;;;;;;;23.33;13.02;;;0.90;99.90;;;;;;5064712;28;20115;-48
2023/12/23 20:01:51;;;;;;;25.90;13.32;;;0.90;99.90;;;;;;5065082;28;20024;-50
2023/12/23 20:04:16;;;;;;;34.55;17.13;;;1.00;99.90;;;;;;5067678;28;20028;-50
2023/12/23 20:06:42;;;;;;;33.28;17.25;;;0.90;99.90;;;;;;5068305;28;20056;-50
2023/12/23 20:09:08;;;;;;;37.88;21.00;;;1.00;99.90;;;;;;5068171;28;20040;-50
2023/12/23 20:11:33;;;;;;;46.22;23.67;;;0.90;99.90;;;;;;5068791;28;20025;-49
2023/12/23 20:14:01;;;;;;;40.92;21.38;;;0.90;99.90;;;;;;5067941;28;20032;-49
2023/12/23 20:16:27;;;;;;;34.38;17.65;;;0.90;99.90;;;;;;5068228;28;20118;-49
2023/12/23 20:18:53;;;;;;;32.83;18.20;;;0.90;99.90;;;;;;5067763;28;20033;-46
2023/12/23 20:21:20;;;;;;;37.72;17.85;;;1.00;99.90;;;;;;5066228;28;20292;-48
2023/12/23 20:23:46;;;;;;;38.15;18.88;;;0.90;99.90;;;;;;5063953;28;20032;-49
2023/12/23 20:26:12;;;;;;;35.25;17.13;;;0.90;99.90;;;;;;5066041;28;20086;-47
2023/12/23 20:28:38;;;;;;;30.17;15.38;;;0.90;99.90;;;;;;5065673;28;20032;-46
2023/12/23 20:31:07;;;;;;;33.40;16.48;;;0.90;99.90;;;;;;5065672;28;20841;-49
2023/12/23 20:33:33;;;;;;;32.00;15.90;;;0.90;99.90;;;;;;5065787;28;20040;-48
2023/12/23 20:36:03;;;;;;;32.88;15.77;;;0.90;99.90;;;;;;5065630;28;20052;-50
2023/12/23 20:38:29;;;;;;;32.05;15.80;;;0.90;99.90;;;;;;5065257;28;20039;-48
2023/12/23 20:40:55;;;;;;;32.13;16.42;;;0.90;99.90;;;;;;5064165;28;20036;-50
2023/12/23 20:43:21;;;;;;;30.77;15.52;;;0.90;99.90;;;;;;5064827;28;20369;-50
2023/12/23 20:45:46;;;;;;;45.92;20.42;;;0.90;99.90;;;;;;5065554;28;20107;-49
2023/12/23 20:48:12;;;;;;;40.65;17.95;;;0.90;99.90;;;;;;5065444;28;20093;-50
2023/12/23 20:50:38;;;;;;;38.17;17.35;;;0.90;99.90;;;;;;5065445;28;20033;-45
2023/12/23 20:53:06;;;;;;;39.45;18.38;;;0.90;99.90;;;;;;5065007;28;20137;-49
2023/12/23 20:55:33;;;;;;;37.45;16.20;;;0.90;99.90;;;;;;5064718;28;20028;-47
2023/12/23 20:58:02;;;;;;;39.15;18.27;;;0.90;99.90;;;;;;5063448;28;20585;-48
2023/12/23 21:00:29;;;;;;;32.67;16.02;;;0.90;99.90;;;;;;5065140;28;20024;-45
2023/12/23 21:02:54;;;;;;;32.15;16.27;;;1.00;99.90;;;;;;5064305;28;20109;-48
2023/12/23 21:05:21;;;;;;;42.55;17.88;;;0.90;99.90;;;;;;5065052;28;20472;-49
2023/12/23 21:07:47;;;;;;;39.40;17.40;;;1.00;99.90;;;;;;5065084;28;20408;-50
2023/12/23 21:10:14;;;;;;;42.20;19.23;;;1.00;99.90;;;;;;5064999;28;20039;-49
2023/12/23 21:12:40;;;;;;;46.13;19.42;;;1.00;99.90;;;;;;5065065;28;20032;-49
2023/12/23 21:15:07;;;;;;;37.83;19.55;;;1.00;99.90;;;;;;5064608;28;20048;-48
2023/12/23 21:17:33;;;;;;;;;;;0.90;99.90;;;;;;5065084;28;20078;-48
2023/12/23 21:20:00;;;;;;;33.33;15.50;;;0.90;99.90;;;;;;5063914;28;19943;-48
2023/12/23 21:22:26;;;;;;;34.22;16.55;;;0.90;99.90;;;;;;5063066;28;20029;-45
2023/12/23 21:24:53;;;;;;;34.25;15.90;;;0.90;99.90;;;;;;5067678;28;20061;-49
2023/12/23 21:27:19;;;;;;;30.73;14.65;;;0.90;99.90;;;;;;5063273;28;20032;-46
2023/12/23 21:29:45;;;;;;;28.48;15.05;;;0.90;99.90;;;;;;5062338;28;20078;-47
2023/12/23 21:32:13;;;;;;;35.40;16.17;;;0.90;99.90;;;;;;5060661;28;20522;-48
2023/12/23 21:34:38;;;;;;;30.23;13.93;;;0.90;99.90;;;;;;5062148;28;20037;-47
2023/12/23 21:37:04;;;;;;;31.83;14.77;;;0.90;99.90;;;;;;5065246;28;20376;-48
2023/12/23 21:39:30;;;;;;;30.45;14.40;;;0.90;99.90;;;;;;5073259;28;20029;-47
2023/12/23 21:41:55;;;;;;;33.33;14.57;;;0.90;99.90;;;;;;5060408;28;20028;-49
2023/12/23 21:44:21;;;;;;;35.90;15.50;;;0.90;99.90;;;;;;5058497;28;20380;-46
2023/12/23 21:46:48;;;;;;;34.10;17.08;;;0.90;99.90;;;;;;5071082;28;20055;-52
2023/12/23 21:49:13;;;;;;;33.10;15.68;;;0.90;99.90;;;;;;5072954;28;20025;-50
2023/12/23 21:51:40;;;;;;;41.63;18.80;;;1.00;99.90;;;;;;5066560;28;20827;-54
2023/12/23 21:54:06;;;;;;;31.08;14.43;;;0.90;99.90;;;;;;5050414;28;20036;-47
2023/12/23 21:56:32;;;;;;;36.33;17.47;;;0.90;99.90;;;;;;5062646;28;20117;-54
2023/12/23 21:58:58;;;;;;;26.88;13.88;;;0.90;99.90;;;;;;5061475;28;20426;-47
2023/12/23 22:01:23;;;;;;;30.38;14.65;;;0.90;99.90;;;;;;5063033;28;20456;-52
2023/12/23 22:03:49;;;;;;;35.95;17.45;;;0.90;99.90;;;;;;5061489;28;20113;-47
2023/12/23 22:06:15;;;;;;;31.25;13.85;;;0.90;99.90;;;;;;5062038;28;20036;-51
2023/12/23 22:08:41;;;;;;;32.78;13.88;;;0.90;99.90;;;;;;5062794;28;20101;-49
2023/12/23 22:11:08;;;;;;;32.83;13.00;;;0.90;99.90;;;;;;5063105;28;20480;-51
2023/12/23 22:13:34;;;;;;;26.30;11.10;;;0.90;99.90;;;;;;5062891;28;20449;-47
2023/12/23 22:16:00;;;;;;;29.33;11.15;;;0.90;99.90;;;;;;5062341;28;20063;-48
2023/12/23 22:18:26;;;;;;;25.73;11.02;;;0.90;99.90;;;;;;5060977;28;20861;-49
2023/12/23 22:20:51;;;;;;;24.17;11.15;;;0.90;99.90;;;;;;5062841;28;20060;-47
2023/12/23 22:23:17;;;;;;;26.58;11.80;;;0.90;99.90;;;;;;5062811;28;20131;-51
2023/12/23 22:25:43;;;;;;;22.42;10.13;;;0.90;99.90;;;;;;5062842;28;20032;-50
2023/12/23 22:28:08;;;;;;;27.70;10.50;;;0.90;99.90;;;;;;5062313;28;20471;-50
2023/12/23 22:30:34;;;;;;;27.10;8.88;;;0.90;99.90;;;;;;5063262;28;20025;-52
2023/12/23 22:33:00;;;;;;;20.23;8.32;;;0.90;99.90;;;;;;5062864;28;20028;-48
2023/12/23 22:35:25;;;;;;;22.15;9.90;;;0.90;99.90;;;;;;5062815;28;20094;-51
2023/12/23 22:37:52;;;;;;;23.58;9.65;;;0.90;99.90;;;;;;5066093;28;20040;-45
2023/12/23 22:40:18;;;;;;;22.67;9.82;;;0.90;99.90;;;;;;5065662;28;20024;-46
2023/12/23 22:42:43;;;;;;;20.73;9.80;;;0.80;99.90;;;;;;5066644;28;20478;-51
2023/12/23 22:45:09;;;;;;;19.98;10.38;;;0.80;99.90;;;;;;5064807;28;20028;-48
2023/12/23 22:47:35;;;;;;;27.25;10.32;;;0.80;99.90;;;;;;5060885;28;20040;-48
2023/12/23 22:50:01;;;;;;;21.23;9.85;;;0.80;99.90;;;;;;5063770;28;20047;-46
2023/12/23 22:52:27;;;;;;;28.60;10.73;;;0.80;99.90;;;;;;5065347;28;20616;-48
2023/12/23 22:54:52;;;;;;;21.92;9.73;;;0.80;99.90;;;;;;5065798;28;20432;-47
2023/12/23 22:57:18;;;;;;;21.75;10.00;;;0.80;99.90;;;;;;5064332;28;20037;-50
2023/12/23 22:59:44;;;;;;;22.70;9.85;;;0.80;99.90;;;;;;5067027;28;20034;-50
2023/12/23 23:02:09;;;;;;;23.92;9.30;;;0.80;99.90;;;;;;5066102;28;20032;-52
2023/12/23 23:04:35;;;;;;;20.67;8.23;;;0.80;99.90;;;;;;5065969;28;20035;-48
2023/12/23 23:07:01;;;;;;;25.70;8.75;;;0.80;99.90;;;;;;5066792;28;20086;-48
2023/12/23 23:09:26;;;;;;;18.42;9.07;;;0.80;99.90;;;;;;5066312;28;20556;-53
2023/12/23 23:11:52;;;;;;;19.55;7.97;;;0.80;99.90;;;;;;5066428;28;20050;-47
2023/12/23 23:14:18;;;;;;;20.20;7.90;;;0.80;99.90;;;;;;5065710;28;20052;-52
2023/12/23 23:16:43;;;;;;;17.27;8.35;;;0.80;99.90;;;;;;5066381;28;20073;-50
2023/12/23 23:19:09;;;;;;;20.30;8.77;;;0.90;99.90;;;;;;5065679;28;20021;-49
2023/12/23 23:21:35;;;;;;;19.33;9.00;;;0.90;99.90;;;;;;5065847;28;20052;-50
2023/12/23 23:24:01;;;;;;;17.73;7.35;;;0.90;99.90;;;;;;5065336;28;20071;-49
2023/12/23 23:26:27;;;;;;;16.70;6.30;;;0.90;99.90;;;;;;5065615;28;20060;-49
2023/12/23 23:28:52;;;;;;;16.52;6.35;;;0.90;99.90;;;;;;5065990;28;20032;-50
2023/12/23 23:31:19;;;;;;;14.73;6.43;;;0.90;99.90;;;;;;5065796;28;20571;-51
2023/12/23 23:33:45;;;;;;;12.77;5.93;;;0.90;99.90;;;;;;5065292;28;20032;-49
2023/12/23 23:36:15;;;;;;;16.73;6.22;;;1.00;99.90;;;;;;5068527;28;20045;-48
2023/12/23 23:38:40;;;;;;;14.48;6.68;;;1.00;99.90;;;;;;5065658;28;20056;-52
2023/12/23 23:41:09;;;;;;;16.15;7.32;;;1.00;99.90;;;;;;5065377;28;20793;-49
2023/12/23 23:43:35;;;;;;;15.70;8.40;;;0.90;99.90;;;;;;5054276;28;20060;-50
2023/12/23 23:46:00;;;;;;;13.50;6.72;;;0.90;99.90;;;;;;5045152;28;20036;-47
2023/12/23 23:48:26;;;;;;;12.88;6.93;;;0.90;99.90;;;;;;5059321;28;20519;-47
2023/12/23 23:50:51;;;;;;;16.77;6.50;;;1.00;99.90;;;;;;5065216;28;20031;-49
2023/12/23 23:53:20;;;;;;;13.10;6.05;;;1.00;99.90;;;;;;5065278;28;20117;-52
2023/12/23 23:55:46;;;;;;;11.63;6.57;;;1.00;99.90;;;;;;5064453;28;20451;-47
2023/12/23 23:58:12;;;;;;;10.23;5.53;;;1.00;99.90;;;;;;5061596;28;20115;-50
